Time;durP1;ratioP1;P1;durP2;ratioP2;P2;SDS_P1;SDS_P2;PMS_P1;PMS_P2;Temp;Humidity;BMP_temperature;BMP_pressure;BME280_temperature;BME280_humidity;BME280_pressure;Samples;Min_cycle;Max_cycle;Signal;HPM_P1;HPM_P2
2021/12/08 00:02:18;;;;;;;11.75;4.47;;;;;;;;;;5051071;27;20465;-83
2021/12/08 00:04:44;;;;;;;12.00;5.25;;;;;;;;;;5044047;28;20051;-83
2021/12/08 00:07:10;;;;;;;11.80;5.20;;;;;;;;;;5074026;27;20051;-83
2021/12/08 00:09:59;;;;;;;8.02;4.82;;;;;;;;;;5053123;27;20067;-83
2021/12/08 00:15:10;;;;;;;9.98;5.32;;;;;;;;;;5095877;27;20140;-83
2021/12/08 00:17:36;;;;;;;10.85;4.93;;;;;;;;;;5077225;27;20091;-84
2021/12/08 00:20:04;;;;;;;10.15;5.13;;;;;;;;;;5042213;28;20130;-83
2021/12/08 00:22:30;;;;;;;12.55;4.97;;;;;;;;;;5059153;28;20165;-84
2021/12/08 00:24:56;;;;;;;8.20;5.25;;;;;;;;;;5055346;28;20040;-83
2021/12/08 00:27:22;;;;;;;10.73;5.50;;;;;;;;;;5069112;28;20044;-84
2021/12/08 00:29:49;;;;;;;13.65;5.93;;;;;;;;;;5054060;27;20043;-84
2021/12/08 00:32:15;;;;;;;11.38;5.97;;;;;;;;;;5051361;28;20063;-83
2021/12/08 00:34:41;;;;;;;16.13;5.30;;;;;;;;;;5057686;27;20052;-83
2021/12/08 00:37:07;;;;;;;11.35;5.18;;;;;;;;;;5034248;27;20134;-84
2021/12/08 00:39:34;;;;;;;10.07;5.20;;;;;;;;;;5058029;28;20092;-85
2021/12/08 00:42:00;;;;;;;9.63;5.72;;;;;;;;;;5054666;28;20452;-84
2021/12/08 00:44:26;;;;;;;11.60;5.32;;;;;;;;;;5072890;27;20602;-85
2021/12/08 00:46:52;;;;;;;11.70;5.63;;;;;;;;;;5046001;27;20108;-85
2021/12/08 00:49:21;;;;;;;10.57;5.32;;;;;;;;;;5036656;27;20650;-85
2021/12/08 00:51:47;;;;;;;;;;;;;;;;;;5058658;27;20045;-84
2021/12/08 00:54:13;;;;;;;10.30;4.20;;;;;;;;;;5070625;27;19920;-84
2021/12/08 00:56:39;;;;;;;8.90;4.70;;;;;;;;;;5076400;28;20055;-83
2021/12/08 00:59:11;;;;;;;11.65;4.78;;;;;;;;;;5036677;28;20106;-84
2021/12/08 01:01:38;;;;;;;5.95;5.03;;;;;;;;;;5057669;27;20062;-84
2021/12/08 01:04:04;;;;;;;7.75;4.70;;;;;;;;;;5055353;28;20393;-85
2021/12/08 01:06:30;;;;;;;7.47;4.07;;;;;;;;;;5057114;27;20105;-84
2021/12/08 01:08:57;;;;;;;9.18;4.20;;;;;;;;;;5073787;27;20046;-85
2021/12/08 01:11:23;;;;;;;10.88;3.90;;;;;;;;;;5050083;27;20096;-85
2021/12/08 01:13:49;;;;;;;9.93;4.80;;;;;;;;;;5055811;27;20385;-84
2021/12/08 01:16:15;;;;;;;10.70;4.43;;;;;;;;;;5050492;28;20047;-84
2021/12/08 01:18:41;;;;;;;9.35;4.82;;;;;;;;;;5074455;28;20060;-84
2021/12/08 01:21:08;;;;;;;9.98;4.30;;;;;;;;;;5048953;28;20100;-85
2021/12/08 01:23:35;;;;;;;8.35;4.65;;;;;;;;;;5051764;28;20568;-85
2021/12/08 01:26:01;;;;;;;6.15;4.50;;;;;;;;;;5062349;27;20083;-84
2021/12/08 01:28:28;;;;;;;7.43;4.13;;;;;;;;;;5074852;28;20431;-85
2021/12/08 01:30:54;;;;;;;8.70;4.15;;;;;;;;;;5073635;28;20043;-85
2021/12/08 01:33:20;;;;;;;12.80;4.97;;;;;;;;;;5073184;27;20055;-84
2021/12/08 01:35:46;;;;;;;9.35;5.18;;;;;;;;;;5075374;28;20035;-85
2021/12/08 01:38:13;;;;;;;7.72;4.60;;;;;;;;;;5038832;28;20793;-85
2021/12/08 01:40:39;;;;;;;10.90;5.18;;;;;;;;;;5047774;27;20055;-86
2021/12/08 01:43:12;;;;;;;7.82;4.55;;;;;;;;;;5056000;28;20382;-84
2021/12/08 01:48:23;;;;;;;8.40;4.40;;;;;;;;;;5072054;27;20519;-85
2021/12/08 01:50:50;;;;;;;10.68;5.05;;;;;;;;;;5076772;28;20430;-84
2021/12/08 01:53:16;;;;;;;7.47;4.72;;;;;;;;;;5056723;27;20047;-85
2021/12/08 01:55:42;;;;;;;6.43;4.13;;;;;;;;;;5059736;28;20044;-84
2021/12/08 01:58:09;;;;;;;8.95;5.07;;;;;;;;;;5040863;27;20101;-85
2021/12/08 02:00:37;;;;;;;10.77;5.05;;;;;;;;;;5057567;27;20412;-84
2021/12/08 02:03:03;;;;;;;8.32;4.75;;;;;;;;;;5052507;28;20040;-86
2021/12/08 02:05:29;;;;;;;9.52;4.70;;;;;;;;;;5056789;27;20082;-84
2021/12/08 02:07:55;;;;;;;11.05;5.13;;;;;;;;;;5041930;28;20040;-84
2021/12/08 02:10:22;;;;;;;11.27;4.47;;;;;;;;;;5072110;27;20048;-85
2021/12/08 02:12:48;;;;;;;9.75;4.47;;;;;;;;;;5043281;27;20079;-85
2021/12/08 02:15:15;;;;;;;7.80;4.55;;;;;;;;;;5040352;27;20039;-85
2021/12/08 02:17:41;;;;;;;7.80;4.68;;;;;;;;;;5055569;28;20164;-85
2021/12/08 02:20:08;;;;;;;8.40;4.68;;;;;;;;;;5056890;28;20040;-85
2021/12/08 02:22:34;;;;;;;8.70;4.40;;;;;;;;;;5069877;28;20501;-84
2021/12/08 02:25:00;;;;;;;7.05;4.50;;;;;;;;;;5053312;28;20047;-85
2021/12/08 02:27:26;;;;;;;9.80;4.80;;;;;;;;;;5070365;28;20384;-85
2021/12/08 02:29:56;;;;;;;6.80;4.13;;;;;;;;;;5073683;28;20112;-85
2021/12/08 02:46:37;;;;;;;7.88;4.93;;;;;;;;;;5075945;27;20043;-85
2021/12/08 02:48:33;;;;;;;9.43;4.50;;;;;;;;;;5073024;28;20055;-84
2021/12/08 02:51:00;;;;;;;11.30;5.00;;;;;;;;;;5036817;28;20040;-85
2021/12/08 02:53:26;;;;;;;8.23;4.72;;;;;;;;;;5055828;28;20725;-85
2021/12/08 02:55:52;;;;;;;6.45;4.63;;;;;;;;;;5073472;28;20095;-85
2021/12/08 02:58:18;;;;;;;5.78;4.82;;;;;;;;;;5054423;28;20031;-84
2021/12/08 03:00:52;;;;;;;8.18;4.70;;;;;;;;;;5077075;28;20062;-85
2021/12/08 03:03:18;;;;;;;8.82;4.90;;;;;;;;;;5052923;28;20472;-85
2021/12/08 03:05:44;;;;;;;10.95;5.60;;;;;;;;;;5071069;28;20165;-85
2021/12/08 03:08:10;;;;;;;9.35;5.18;;;;;;;;;;5050419;28;20479;-85
2021/12/08 03:10:38;;;;;;;8.95;5.47;;;;;;;;;;5073436;28;20047;-85
2021/12/08 03:13:04;;;;;;;7.82;5.03;;;;;;;;;;5057193;28;20389;-85
2021/12/08 03:15:30;;;;;;;9.35;5.65;;;;;;;;;;5044540;28;20101;-86
2021/12/08 03:17:56;;;;;;;7.90;5.15;;;;;;;;;;5041309;28;20130;-84
2021/12/08 03:20:28;;;;;;;5.75;4.68;;;;;;;;;;5038991;28;20109;-85
2021/12/08 03:23:01;;;;;;;9.75;5.78;;;;;;;;;;5072959;28;20051;-85
2021/12/08 03:25:29;;;;;;;8.68;6.07;;;;;;;;;;5041520;28;20570;-85
2021/12/08 03:28:07;;;;;;;9.68;5.80;;;;;;;;;;5041244;28;20043;-85
2021/12/08 03:30:39;;;;;;;10.63;6.15;;;;;;;;;;5075189;28;20043;-86
2021/12/08 03:33:05;;;;;;;9.45;6.35;;;;;;;;;;5052529;28;20053;-85
2021/12/08 03:35:31;;;;;;;9.63;6.38;;;;;;;;;;5055848;28;20158;-85
2021/12/08 03:38:01;;;;;;;8.73;6.47;;;;;;;;;;5038291;28;20047;-85
2021/12/08 03:40:27;;;;;;;12.18;6.60;;;;;;;;;;5054792;28;20043;-85
2021/12/08 03:42:56;;;;;;;9.70;7.18;;;;;;;;;;5072484;28;20521;-86
2021/12/08 03:45:23;;;;;;;8.40;6.55;;;;;;;;;;5050879;28;20047;-86
2021/12/08 03:47:50;;;;;;;12.23;7.37;;;;;;;;;;5040490;28;20044;-85
2021/12/08 03:50:17;;;;;;;12.27;8.10;;;;;;;;;;5037022;28;20441;-86
2021/12/08 03:52:43;;;;;;;8.52;7.40;;;;;;;;;;5076577;28;20036;-84
2021/12/08 03:55:10;;;;;;;9.43;7.10;;;;;;;;;;5054449;28;20043;-86
2021/12/08 03:57:36;;;;;;;9.63;7.32;;;;;;;;;;5042786;28;20062;-85
2021/12/08 04:00:04;;;;;;;8.38;7.38;;;;;;;;;;5062323;28;20130;-86
2021/12/08 04:02:30;;;;;;;10.63;8.02;;;;;;;;;;5041608;28;20049;-85
2021/12/08 04:04:56;;;;;;;10.05;8.20;;;;;;;;;;5058852;28;20382;-87
2021/12/08 04:07:23;;;;;;;11.65;8.73;;;;;;;;;;5057121;28;20056;-85
2021/12/08 04:09:50;;;;;;;11.25;8.23;;;;;;;;;;5046844;27;20095;-85
2021/12/08 04:12:17;;;;;;;11.35;8.73;;;;;;;;;;5076625;28;20039;-86
2021/12/08 04:14:46;;;;;;;16.02;9.18;;;;;;;;;;5045827;27;20481;-86
2021/12/08 04:17:12;;;;;;;;;;;;;;;;;;5058503;28;20117;-85
2021/12/08 04:19:38;;;;;;;9.43;7.80;;;;;;;;;;5062037;27;20486;-85
2021/12/08 04:22:06;;;;;;;10.82;8.98;;;;;;;;;;5070179;27;20070;-85
2021/12/08 04:24:32;;;;;;;;;;;;;;;;;;5049123;27;20412;-86
2021/12/08 04:27:01;;;;;;;12.20;9.30;;;;;;;;;;5073198;27;19932;-85
2021/12/08 04:29:27;;;;;;;;;;;;;;;;;;5060185;27;20156;-85
2021/12/08 04:31:53;;;;;;;11.52;9.05;;;;;;;;;;5079456;28;20456;-85
2021/12/08 04:34:25;;;;;;;11.07;9.60;;;;;;;;;;5040830;27;20062;-85
2021/12/08 04:36:52;;;;;;;12.35;10.43;;;;;;;;;;5046086;27;20039;-85
2021/12/08 04:39:28;;;;;;;9.55;8.57;;;;;;;;;;5059506;27;20052;-86
2021/12/08 04:42:01;;;;;;;11.30;9.38;;;;;;;;;;5043303;27;20066;-86
2021/12/08 04:44:36;;;;;;;14.30;10.32;;;;;;;;;;5061839;27;20075;-86
2021/12/08 04:52:43;;;;;;;10.93;9.82;;;;;;;;;;5058604;28;20365;-86
2021/12/08 05:08:45;;;;;;;15.07;10.95;;;;;;;;;;5019043;27;20062;-86
2021/12/08 05:11:12;;;;;;;17.20;11.63;;;;;;;;;;5040207;28;20064;-86
2021/12/08 05:13:39;;;;;;;15.10;10.98;;;;;;;;;;5057857;28;20044;-85
2021/12/08 05:16:05;;;;;;;16.33;11.50;;;;;;;;;;5084257;27;20059;-86
2021/12/08 05:18:32;;;;;;;13.23;10.73;;;;;;;;;;5043209;27;20047;-87
2021/12/08 05:21:02;;;;;;;13.20;10.17;;;;;;;;;;5087443;28;20059;-87
2021/12/08 05:23:39;;;;;;;14.63;10.93;;;;;;;;;;5055869;28;20046;-85
2021/12/08 05:26:14;;;;;;;17.00;10.70;;;;;;;;;;5041865;27;20116;-85
2021/12/08 05:28:40;;;;;;;13.60;11.32;;;;;;;;;;5042030;28;20093;-86
2021/12/08 05:31:17;;;;;;;14.55;10.88;;;;;;;;;;5036508;28;20044;-86
2021/12/08 05:33:44;;;;;;;15.68;11.45;;;;;;;;;;5055339;28;20040;-86
2021/12/08 05:36:10;;;;;;;16.35;11.50;;;;;;;;;;5066540;28;20067;-86
2021/12/08 05:38:36;;;;;;;12.80;10.98;;;;;;;;;;5056154;27;20055;-86
2021/12/08 05:41:10;;;;;;;15.80;11.35;;;;;;;;;;5063208;27;20449;-86
2021/12/08 05:43:36;;;;;;;13.90;10.90;;;;;;;;;;5044169;28;20059;-86
2021/12/08 05:46:03;;;;;;;14.60;10.88;;;;;;;;;;5052006;28;20193;-85
2021/12/08 05:48:32;;;;;;;14.77;11.50;;;;;;;;;;5086099;27;20458;-87
2021/12/08 05:50:58;;;;;;;;;;;;;;;;;;5057475;27;20044;-86
2021/12/08 05:53:25;;;;;;;15.32;10.77;;;;;;;;;;5059479;28;20275;-86
2021/12/08 05:55:51;;;;;;;14.52;11.10;;;;;;;;;;5043346;27;20048;-86
2021/12/08 05:58:18;;;;;;;13.80;10.98;;;;;;;;;;5036922;28;20036;-86
2021/12/08 06:01:15;;;;;;;16.65;10.60;;;;;;;;;;5072249;28;20071;-86
2021/12/08 06:03:42;;;;;;;12.75;9.85;;;;;;;;;;5039805;28;20118;-86
2021/12/08 06:06:08;;;;;;;16.48;10.10;;;;;;;;;;5056941;28;20540;-86
2021/12/08 06:08:34;;;;;;;12.73;10.48;;;;;;;;;;5058198;28;20082;-86
2021/12/08 06:11:01;;;;;;;14.93;10.68;;;;;;;;;;5058534;27;20489;-85
2021/12/08 06:13:27;;;;;;;14.32;9.60;;;;;;;;;;5058837;28;20127;-87
2021/12/08 06:15:53;;;;;;;15.02;9.70;;;;;;;;;;5036540;28;20036;-83
2021/12/08 06:18:20;;;;;;;13.88;10.10;;;;;;;;;;5040317;28;20523;-86
2021/12/08 06:20:46;;;;;;;12.63;9.88;;;;;;;;;;5041196;28;20082;-85
2021/12/08 06:23:13;;;;;;;13.50;9.35;;;;;;;;;;5038649;27;20493;-88
2021/12/08 06:25:39;;;;;;;15.43;9.82;;;;;;;;;;5060809;28;20035;-86
2021/12/08 06:28:06;;;;;;;12.98;9.00;;;;;;;;;;5054557;28;20089;-85
2021/12/08 06:30:32;;;;;;;13.40;9.25;;;;;;;;;;5061031;28;20459;-86
2021/12/08 06:32:59;;;;;;;12.10;8.55;;;;;;;;;;5039001;27;20617;-82
2021/12/08 06:35:28;;;;;;;11.10;8.98;;;;;;;;;;5052229;28;20191;-87
2021/12/08 06:37:54;;;;;;;12.07;9.20;;;;;;;;;;5084889;28;20047;-88
2021/12/08 06:40:26;;;;;;;11.60;8.45;;;;;;;;;;5054119;28;20040;-84
2021/12/08 06:42:52;;;;;;;10.20;8.45;;;;;;;;;;5057441;27;20412;-85
2021/12/08 06:45:20;;;;;;;13.02;8.55;;;;;;;;;;5043045;28;21884;-86
2021/12/08 06:47:46;;;;;;;14.80;9.18;;;;;;;;;;5060250;28;20135;-86
2021/12/08 06:50:14;;;;;;;10.57;8.75;;;;;;;;;;5038641;28;20039;-84
2021/12/08 06:52:41;;;;;;;10.52;8.30;;;;;;;;;;5062185;28;20039;-84
2021/12/08 06:55:11;;;;;;;11.43;8.00;;;;;;;;;;5054738;28;20097;-84
2021/12/08 06:57:39;;;;;;;13.23;7.97;;;;;;;;;;5072304;28;20097;-84
2021/12/08 07:00:22;;;;;;;10.98;7.93;;;;;;;;;;5050950;28;20485;-84
2021/12/08 07:08:19;;;;;;;8.63;6.65;;;;;;;;;;5065204;28;21525;-85
2021/12/08 07:10:45;;;;;;;15.35;6.18;;;;;;;;;;5076479;28;20035;-86
2021/12/08 07:13:19;;;;;;;9.45;5.30;;;;;;;;;;5044235;28;20040;-85
2021/12/08 07:15:57;;;;;;;9.27;5.43;;;;;;;;;;5049206;28;20040;-86
2021/12/08 07:18:25;;;;;;;11.95;6.03;;;;;;;;;;5054664;28;20114;-86
2021/12/08 07:20:54;;;;;;;8.02;5.50;;;;;;;;;;5063344;28;20736;-86
2021/12/08 07:23:22;;;;;;;10.18;5.70;;;;;;;;;;5076839;28;20132;-84
2021/12/08 07:25:48;;;;;;;11.63;5.30;;;;;;;;;;5059030;28;20051;-84
2021/12/08 07:28:15;;;;;;;7.13;4.93;;;;;;;;;;5052994;28;20043;-85
2021/12/08 07:30:46;;;;;;;9.40;5.22;;;;;;;;;;5069812;28;20051;-84
2021/12/08 07:33:12;;;;;;;7.90;4.70;;;;;;;;;;5054149;28;20062;-85
2021/12/08 07:35:44;;;;;;;8.02;4.72;;;;;;;;;;5043573;28;20044;-85
2021/12/08 07:38:12;;;;;;;8.38;4.53;;;;;;;;;;5046852;28;20058;-85
2021/12/08 07:40:44;;;;;;;8.95;4.57;;;;;;;;;;5070927;28;20399;-85
2021/12/08 07:43:12;;;;;;;7.10;4.22;;;;;;;;;;5037676;28;20040;-85
2021/12/08 07:45:39;;;;;;;5.60;4.30;;;;;;;;;;5090561;28;20059;-85
2021/12/08 07:48:06;;;;;;;6.10;4.43;;;;;;;;;;5042360;28;21237;-86
2021/12/08 07:50:57;;;;;;;10.60;4.53;;;;;;;;;;5067454;28;20134;-86
2021/12/08 07:53:24;;;;;;;7.25;4.18;;;;;;;;;;5072553;28;20489;-84
2021/12/08 07:55:51;;;;;;;11.43;4.10;;;;;;;;;;5084605;28;20036;-85
2021/12/08 07:58:18;;;;;;;7.35;3.88;;;;;;;;;;5063238;28;20062;-86
2021/12/08 08:00:46;;;;;;;7.28;3.47;;;;;;;;;;5044519;28;20047;-85
2021/12/08 08:03:12;;;;;;;9.80;4.15;;;;;;;;;;5059957;28;20051;-86
2021/12/08 08:05:39;;;;;;;5.85;3.38;;;;;;;;;;5066554;28;20141;-85
2021/12/08 08:08:05;;;;;;;10.68;3.20;;;;;;;;;;5062189;28;20044;-87
2021/12/08 08:10:32;;;;;;;8.35;3.13;;;;;;;;;;5048108;28;20051;-86
2021/12/08 08:13:02;;;;;;;9.32;3.08;;;;;;;;;;5085289;28;20115;-85
2021/12/08 08:15:29;;;;;;;6.80;2.72;;;;;;;;;;5098024;28;20050;-85
2021/12/08 08:17:57;;;;;;;6.43;2.60;;;;;;;;;;5067362;28;20729;-85
2021/12/08 08:20:29;;;;;;;8.23;2.70;;;;;;;;;;5087134;27;20053;-86
2021/12/08 08:22:55;;;;;;;6.33;2.87;;;;;;;;;;5069110;28;20051;-86
2021/12/08 08:25:23;;;;;;;8.45;2.95;;;;;;;;;;5047823;28;20047;-86
2021/12/08 08:27:49;;;;;;;8.20;2.83;;;;;;;;;;5051563;28;20051;-85
2021/12/08 08:30:18;;;;;;;7.60;2.67;;;;;;;;;;5047933;28;20342;-85
2021/12/08 08:32:47;;;;;;;;;;;;;;;;;;5049770;28;20074;-86
2021/12/08 08:35:18;;;;;;;11.57;3.22;;;;;;;;;;5059027;28;20045;-86
2021/12/08 08:37:44;;;;;;;5.57;2.53;;;;;;;;;;5041389;28;20048;-85
2021/12/08 08:40:16;;;;;;;10.95;3.25;;;;;;;;;;5054365;28;20048;-84
2021/12/08 08:42:42;;;;;;;11.05;2.60;;;;;;;;;;5033184;28;20517;-86
2021/12/08 08:45:14;;;;;;;8.23;2.90;;;;;;;;;;5028201;28;20711;-84
2021/12/08 08:47:42;;;;;;;9.27;2.08;;;;;;;;;;5045283;28;20081;-85
2021/12/08 08:50:08;;;;;;;;;;;;;;;;;;5043478;28;20044;-85
2021/12/08 08:52:36;;;;;;;7.75;2.40;;;;;;;;;;5050322;28;19988;-85
2021/12/08 08:55:03;;;;;;;6.57;2.30;;;;;;;;;;5060126;28;20044;-84
2021/12/08 08:57:33;;;;;;;9.90;2.73;;;;;;;;;;5062934;28;20047;-85
2021/12/08 09:00:00;;;;;;;5.28;2.38;;;;;;;;;;5036975;28;20353;-85
2021/12/08 09:02:38;;;;;;;9.83;3.30;;;;;;;;;;5076021;28;20040;-85
2021/12/08 09:05:10;;;;;;;7.50;2.17;;;;;;;;;;5040716;28;20315;-85
2021/12/08 09:07:39;;;;;;;8.38;2.35;;;;;;;;;;5060388;28;20393;-85
2021/12/08 09:10:08;;;;;;;9.63;2.70;;;;;;;;;;5053890;28;20048;-86
2021/12/08 09:12:40;;;;;;;8.95;2.20;;;;;;;;;;5030131;28;20070;-85
2021/12/08 09:15:10;;;;;;;8.05;2.63;;;;;;;;;;5040561;28;20112;-85
2021/12/08 09:17:38;;;;;;;6.90;2.35;;;;;;;;;;5032081;28;20047;-85
2021/12/08 09:20:28;;;;;;;10.10;2.90;;;;;;;;;;5030042;28;20135;-85
2021/12/08 09:23:01;;;;;;;11.98;3.08;;;;;;;;;;5029089;28;20047;-85
2021/12/08 09:25:30;;;;;;;10.52;2.95;;;;;;;;;;5029072;28;20040;-85
2021/12/08 09:27:56;;;;;;;7.13;2.50;;;;;;;;;;5059035;28;20059;-85
2021/12/08 09:30:22;;;;;;;9.65;2.58;;;;;;;;;;5041169;28;20396;-85
2021/12/08 09:32:50;;;;;;;9.52;2.75;;;;;;;;;;5046556;28;20585;-85
2021/12/08 09:35:18;;;;;;;7.03;2.70;;;;;;;;;;5043766;28;20076;-85
2021/12/08 09:37:50;;;;;;;6.47;2.45;;;;;;;;;;5030355;28;20044;-84
2021/12/08 09:40:18;;;;;;;9.63;2.72;;;;;;;;;;5037780;28;20051;-85
2021/12/08 09:42:46;;;;;;;7.63;2.60;;;;;;;;;;5051067;28;20189;-84
2021/12/08 09:45:23;;;;;;;9.32;2.90;;;;;;;;;;5044413;28;20436;-85
2021/12/08 09:47:49;;;;;;;10.60;3.03;;;;;;;;;;5045018;28;20043;-84
2021/12/08 09:50:16;;;;;;;9.52;2.70;;;;;;;;;;5024614;28;20062;-84
2021/12/08 09:52:42;;;;;;;8.20;3.00;;;;;;;;;;5028830;28;20066;-84
2021/12/08 09:55:10;;;;;;;7.30;2.13;;;;;;;;;;5026908;28;20028;-85
2021/12/08 09:57:36;;;;;;;11.70;2.53;;;;;;;;;;5047841;28;20051;-84
2021/12/08 10:00:03;;;;;;;9.95;2.83;;;;;;;;;;5040426;28;20348;-85
2021/12/08 10:02:36;;;;;;;8.57;2.58;;;;;;;;;;5030924;28;20391;-83
2021/12/08 10:05:09;;;;;;;8.25;2.42;;;;;;;;;;5026412;28;20040;-83
2021/12/08 10:07:37;;;;;;;7.50;2.83;;;;;;;;;;5044813;28;20040;-84
2021/12/08 10:10:03;;;;;;;13.32;3.20;;;;;;;;;;5028511;28;20042;-84
2021/12/08 10:12:33;;;;;;;8.65;2.92;;;;;;;;;;5037093;28;20054;-84
2021/12/08 10:15:01;;;;;;;7.25;2.63;;;;;;;;;;5049983;28;20421;-83
2021/12/08 10:17:28;;;;;;;10.70;2.75;;;;;;;;;;5063823;28;20052;-84
2021/12/08 10:20:07;;;;;;;8.32;2.67;;;;;;;;;;5028517;28;20104;-85
2021/12/08 10:22:34;;;;;;;7.18;2.55;;;;;;;;;;5048362;28;20058;-84
2021/12/08 10:25:03;;;;;;;8.73;2.78;;;;;;;;;;5049724;28;20464;-84
2021/12/08 10:27:29;;;;;;;8.75;2.88;;;;;;;;;;5050143;28;20043;-84
2021/12/08 10:30:16;;;;;;;8.98;2.75;;;;;;;;;;5027258;28;20456;-85
2021/12/08 10:32:42;;;;;;;5.78;2.40;;;;;;;;;;5045173;28;20040;-82
2021/12/08 10:35:09;;;;;;;7.32;2.55;;;;;;;;;;5025078;28;20032;-84
2021/12/08 10:37:39;;;;;;;9.15;2.63;;;;;;;;;;5047820;28;20720;-84
2021/12/08 10:40:10;;;;;;;7.32;2.63;;;;;;;;;;5030378;28;20044;-84
2021/12/08 10:42:36;;;;;;;8.02;2.63;;;;;;;;;;5045560;28;20120;-84
2021/12/08 10:45:21;;;;;;;7.85;2.50;;;;;;;;;;5040954;28;20047;-84
2021/12/08 10:47:49;;;;;;;13.73;2.75;;;;;;;;;;5047633;28;20039;-84
2021/12/08 10:55:53;;;;;;;8.88;3.05;;;;;;;;;;5047206;28;20044;-83
2021/12/08 10:58:26;;;;;;;6.93;2.60;;;;;;;;;;5059369;28;20095;-84
2021/12/08 11:00:53;;;;;;;7.78;2.72;;;;;;;;;;5075316;28;20085;-85
2021/12/08 11:03:19;;;;;;;10.50;3.20;;;;;;;;;;5025803;28;20513;-85
2021/12/08 11:05:46;;;;;;;9.07;2.83;;;;;;;;;;5042247;28;20562;-84
2021/12/08 11:08:18;;;;;;;7.80;2.88;;;;;;;;;;5040120;28;20112;-84
2021/12/08 11:10:56;;;;;;;8.38;3.35;;;;;;;;;;5025568;28;20044;-83
2021/12/08 11:13:23;;;;;;;7.87;2.87;;;;;;;;;;5041776;28;20178;-84
2021/12/08 11:15:57;;;;;;;10.82;3.20;;;;;;;;;;5024898;28;20394;-84
2021/12/08 11:18:23;;;;;;;12.20;2.65;;;;;;;;;;5046689;28;20048;-84
2021/12/08 11:20:54;;;;;;;8.75;2.92;;;;;;;;;;5033512;28;20059;-84
2021/12/08 11:23:45;;;;;;;10.07;2.95;;;;;;;;;;5044177;28;20097;-83
2021/12/08 11:26:25;;;;;;;14.70;3.08;;;;;;;;;;5067304;28;21361;-84
2021/12/08 11:29:11;;;;;;;8.20;3.17;;;;;;;;;;5065847;28;20066;-84
2021/12/08 11:31:39;;;;;;;10.02;3.05;;;;;;;;;;5045073;28;20051;-84
2021/12/08 11:34:09;;;;;;;6.50;2.90;;;;;;;;;;5042679;28;20123;-83
2021/12/08 11:36:36;;;;;;;10.20;3.08;;;;;;;;;;5068335;28;20051;-83
2021/12/08 11:39:07;;;;;;;8.20;3.25;;;;;;;;;;5064172;28;20039;-84
2021/12/08 11:41:36;;;;;;;8.13;3.30;;;;;;;;;;5047390;28;20420;-83
2021/12/08 11:44:06;;;;;;;8.73;3.00;;;;;;;;;;5048235;28;20039;-83
2021/12/08 11:46:40;;;;;;;8.50;3.03;;;;;;;;;;5051457;28;20048;-83
2021/12/08 11:49:08;;;;;;;7.35;3.10;;;;;;;;;;5065505;28;20047;-83
2021/12/08 11:51:46;;;;;;;8.57;3.15;;;;;;;;;;5068744;28;20075;-84
2021/12/08 11:54:25;;;;;;;5.10;2.83;;;;;;;;;;5039530;27;20554;-84
2021/12/08 11:56:52;;;;;;;11.40;2.92;;;;;;;;;;5074868;28;20122;-83
2021/12/08 11:59:18;;;;;;;5.95;2.30;;;;;;;;;;5055674;28;20450;-83
2021/12/08 12:01:46;;;;;;;6.88;2.63;;;;;;;;;;5066023;28;20039;-83
2021/12/08 12:04:12;;;;;;;7.77;3.00;;;;;;;;;;5043520;28;20443;-86
2021/12/08 12:06:38;;;;;;;5.60;2.50;;;;;;;;;;5084299;28;20478;-84
2021/12/08 12:09:06;;;;;;;9.95;3.30;;;;;;;;;;5061527;27;20031;-85
2021/12/08 12:11:33;;;;;;;10.57;3.13;;;;;;;;;;5062353;28;20044;-85
2021/12/08 12:14:02;;;;;;;7.57;2.72;;;;;;;;;;5049635;27;20484;-86
2021/12/08 12:16:29;;;;;;;7.93;2.60;;;;;;;;;;5061418;28;20040;-84
2021/12/08 12:18:58;;;;;;;7.28;2.58;;;;;;;;;;5045133;28;20058;-85
2021/12/08 12:21:33;;;;;;;8.27;2.80;;;;;;;;;;5044474;28;20470;-85
2021/12/08 12:24:19;;;;;;;9.30;2.80;;;;;;;;;;5081792;28;20516;-84
2021/12/08 12:27:05;;;;;;;7.47;3.05;;;;;;;;;;5061144;28;20051;-84
2021/12/08 12:29:48;;;;;;;8.20;3.00;;;;;;;;;;5064481;27;20508;-85
2021/12/08 12:32:19;;;;;;;8.73;2.55;;;;;;;;;;5044532;28;20435;-85
2021/12/08 12:34:45;;;;;;;9.23;3.00;;;;;;;;;;5060575;27;20056;-85
2021/12/08 12:37:16;;;;;;;7.20;2.70;;;;;;;;;;5073759;28;20048;-84
2021/12/08 12:39:49;;;;;;;6.70;2.58;;;;;;;;;;5059720;28;20100;-85
2021/12/08 12:42:17;;;;;;;9.18;2.80;;;;;;;;;;5038579;27;20064;-86
2021/12/08 12:45:05;;;;;;;8.07;2.92;;;;;;;;;;5046087;28;20093;-83
2021/12/08 12:47:32;;;;;;;7.22;2.58;;;;;;;;;;5047359;28;20459;-84
2021/12/08 12:50:08;;;;;;;9.07;2.92;;;;;;;;;;5061254;27;20044;-83
2021/12/08 12:52:38;;;;;;;7.07;2.80;;;;;;;;;;5095795;27;20047;-83
2021/12/08 12:55:09;;;;;;;7.35;2.58;;;;;;;;;;5059538;27;20039;-83
2021/12/08 12:57:55;;;;;;;7.57;2.50;;;;;;;;;;5078908;28;20040;-85
2021/12/08 13:00:31;;;;;;;9.65;2.70;;;;;;;;;;5092824;27;20040;-84
2021/12/08 13:03:08;;;;;;;9.13;3.05;;;;;;;;;;5059739;28;20044;-83
2021/12/08 13:05:46;;;;;;;7.72;2.55;;;;;;;;;;5068358;28;20047;-84
2021/12/08 13:08:13;;;;;;;7.70;2.90;;;;;;;;;;5076434;28;20524;-88
2021/12/08 13:10:40;;;;;;;7.38;2.40;;;;;;;;;;5050488;27;20050;-83
2021/12/08 13:13:17;;;;;;;11.23;2.65;;;;;;;;;;5046886;28;20040;-83
2021/12/08 13:15:49;;;;;;;4.38;2.10;;;;;;;;;;5054634;28;20371;-83
2021/12/08 13:18:15;;;;;;;8.80;3.00;;;;;;;;;;5051163;28;20470;-83
2021/12/08 13:20:50;;;;;;;7.38;2.72;;;;;;;;;;5067435;28;20487;-83
2021/12/08 13:23:18;;;;;;;8.20;2.50;;;;;;;;;;5050825;27;20039;-82
2021/12/08 13:28:21;;;;;;;8.82;2.42;;;;;;;;;;5074913;28;20056;-83
2021/12/08 13:30:53;;;;;;;10.20;2.90;;;;;;;;;;5068223;28;20032;-83
2021/12/08 13:33:22;;;;;;;6.10;2.65;;;;;;;;;;5043121;28;22205;-82
2021/12/08 13:35:48;;;;;;;7.82;2.83;;;;;;;;;;5062591;28;20448;-84
2021/12/08 13:38:14;;;;;;;6.63;2.53;;;;;;;;;;5041010;28;20036;-84
2021/12/08 13:40:45;;;;;;;5.32;2.50;;;;;;;;;;5077731;28;20474;-84
2021/12/08 13:43:12;;;;;;;9.30;2.35;;;;;;;;;;5046108;28;20075;-84
2021/12/08 13:45:49;;;;;;;7.77;2.90;;;;;;;;;;5048513;28;20040;-85
2021/12/08 13:48:36;;;;;;;7.18;2.58;;;;;;;;;;5059506;28;20044;-86
2021/12/08 13:51:24;;;;;;;7.47;2.40;;;;;;;;;;5043517;28;20047;-85
2021/12/08 13:54:09;;;;;;;5.80;2.40;;;;;;;;;;5063021;27;20095;-83
2021/12/08 13:56:42;;;;;;;7.95;2.60;;;;;;;;;;5056729;28;20054;-86
2021/12/08 13:59:08;;;;;;;6.07;2.00;;;;;;;;;;5058115;28;20120;-84
2021/12/08 14:01:38;;;;;;;6.82;2.10;;;;;;;;;;5050817;28;20044;-84
2021/12/08 14:04:15;;;;;;;7.15;2.22;;;;;;;;;;5055696;27;20510;-83
2021/12/08 14:06:41;;;;;;;5.38;2.08;;;;;;;;;;5085744;28;20032;-78
2021/12/08 14:09:13;;;;;;;7.68;2.50;;;;;;;;;;5063704;28;20043;-84
2021/12/08 14:11:40;;;;;;;6.75;2.97;;;;;;;;;;5040180;28;20036;-84
2021/12/08 14:14:08;;;;;;;6.05;2.30;;;;;;;;;;5036876;28;20043;-82
2021/12/08 14:16:37;;;;;;;8.88;3.00;;;;;;;;;;5064813;28;20035;-84
2021/12/08 14:19:10;;;;;;;8.05;2.45;;;;;;;;;;5039436;28;20059;-84
2021/12/08 14:21:40;;;;;;;5.20;2.40;;;;;;;;;;5046289;27;20047;-83
2021/12/08 14:24:10;;;;;;;7.93;2.78;;;;;;;;;;5056840;28;20044;-85
2021/12/08 14:26:37;;;;;;;4.57;2.28;;;;;;;;;;5043938;27;20056;-84
2021/12/08 14:29:07;;;;;;;9.10;2.58;;;;;;;;;;5050840;28;20036;-85
2021/12/08 14:31:35;;;;;;;7.22;2.58;;;;;;;;;;5062147;28;21240;-84
2021/12/08 14:34:02;;;;;;;6.70;2.05;;;;;;;;;;5056502;28;20103;-85
2021/12/08 14:36:29;;;;;;;9.80;2.65;;;;;;;;;;5059840;28;20043;-85
2021/12/08 14:38:57;;;;;;;8.50;2.38;;;;;;;;;;5075606;27;20166;-85
2021/12/08 14:41:24;;;;;;;8.38;2.25;;;;;;;;;;5069135;27;20040;-84
2021/12/08 14:43:53;;;;;;;6.50;2.75;;;;;;;;;;5042938;28;20544;-84
2021/12/08 14:46:22;;;;;;;8.07;2.47;;;;;;;;;;5052818;28;20044;-84
2021/12/08 14:48:58;;;;;;;9.48;3.05;;;;;;;;;;5036903;28;20048;-84
2021/12/08 14:51:25;;;;;;;8.30;2.38;;;;;;;;;;5059203;28;20057;-84
2021/12/08 14:53:53;;;;;;;6.55;2.42;;;;;;;;;;5092647;28;20044;-84
2021/12/08 14:56:20;;;;;;;9.60;2.58;;;;;;;;;;5068277;28;20035;-83
2021/12/08 14:58:46;;;;;;;7.82;2.55;;;;;;;;;;5058953;28;20494;-83
2021/12/08 15:01:12;;;;;;;5.80;2.55;;;;;;;;;;5051360;28;20469;-83
2021/12/08 15:03:43;;;;;;;5.40;2.40;;;;;;;;;;5056561;28;20504;-83
2021/12/08 15:06:15;;;;;;;11.73;2.67;;;;;;;;;;5036485;28;20039;-83
2021/12/08 15:08:42;;;;;;;8.40;3.08;;;;;;;;;;5052399;28;20095;-83
2021/12/08 15:11:08;;;;;;;5.10;2.08;;;;;;;;;;5053970;28;20067;-82
2021/12/08 15:13:35;;;;;;;7.43;2.47;;;;;;;;;;5049539;28;20040;-83
2021/12/08 15:16:03;;;;;;;7.25;2.72;;;;;;;;;;5038356;28;20067;-82
2021/12/08 15:18:29;;;;;;;9.53;2.70;;;;;;;;;;5058730;28;20065;-83
2021/12/08 15:21:00;;;;;;;7.22;2.33;;;;;;;;;;5045958;28;20122;-83
2021/12/08 15:23:43;;;;;;;7.97;2.63;;;;;;;;;;5039358;28;20105;-84
2021/12/08 15:26:10;;;;;;;7.93;2.35;;;;;;;;;;5040795;28;20032;-84
2021/12/08 15:28:41;;;;;;;10.43;2.33;;;;;;;;;;5058791;28;20052;-84
2021/12/08 15:31:31;;;;;;;6.20;2.63;;;;;;;;;;5072759;28;20052;-82
2021/12/08 15:33:57;;;;;;;6.72;2.33;;;;;;;;;;5077969;28;20051;-83
2021/12/08 15:36:24;;;;;;;7.50;2.72;;;;;;;;;;5048995;28;20214;-83
2021/12/08 15:38:53;;;;;;;7.63;2.47;;;;;;;;;;5039828;28;20044;-83
2021/12/08 15:41:21;;;;;;;8.63;2.20;;;;;;;;;;5029359;28;20368;-83
2021/12/08 15:43:47;;;;;;;5.38;2.17;;;;;;;;;;5043393;28;20082;-81
2021/12/08 15:46:15;;;;;;;9.43;2.90;;;;;;;;;;5052535;28;20044;-81